Charter Quote
Worldwide +44-20-3874-8091 Call
Select Language Lang
SAFETY RELIABILITY EXPERIENCE

Tateyama Airport (RJTE) - Jet Charter Services

AIRPORT INFORMATION
ICAORJTE
LOCATIONTateyama, Japan
FACILITY TYPEAIRPORT
Runway Length (ft) Width (ft) Surface Type Elevation (ft)
27/09 984 148 CON 10.00000

At Paramount Business Jets you can hire chartered private jets to and from Tateyama Airport with as little as 4 hours of notice. All flights booked via Paramount Business Jets are operated by certified direct air carriers that meet and exceed the FAA part 135 and 121 protocol or a foreign equivalent safety authority. Furthermore, Paramount Business Jets subscribes to ARGUS for their third party safety checks of operators, aircraft, and crews prior each and every flight to and from Tateyama Airport and worldwide.

  • Quote a trip using Tateyama Airport or call us 24/7 - 365 days a year at +44-20-3874-8091.
Questions? Call +44-20-3874-8091

METAR Weather Data at Tateyama Airport, RJTE

STATIONRJTE
OBSERVEDWed Mar 20, 02:18 UTC
NOWWed Mar 20, 03:52 UTC
AGE1:34 hr ago
WINDNNW at 12 mph
VISIBILITY16 miles
METARRJTE 200218Z 33010KT 290V040 9999 NSC 17/09 Q1018 RMK A3006

Call us on +44-20-3874-8091 (24 Hours) to Hire a Private Jet or Get a Quick Quote.

Find Airports Near any Location

Processing
...